Brickeys, Arkansas
Current Conditions -  °F | °C
As of 10:15 AM on Thursday 27 Nov 2014 (Local Time) from KUTA Reporting Station
Overcast Overcast  
Wind Chill: 35°   Ceiling: 3100
Heat Index: 41°   Visibility: 10mi
Dew Point: 32°   Wind: 10mph
Humidity: 70%   Direction: 350°N
Pressure: 30.53"   Gusts: NA
Location:  34.86°N, 90.59°W
Report Text: KUTA 271615Z AUTO 35009KT 10SM OVC031 05/00 A3053 RMK AO2
Loading
Personal Weather Stations






























Interactive Weather Map New forecast layout! Learn more

10-Day Weather Forecast

Advertisements
Track Severe Weather on mobile